createdAt,value
2018-12-06T00:00:58.947Z,932.11
2018-12-06T00:01:58.950Z,932.14
2018-12-06T00:02:58.942Z,932.14
2018-12-06T00:03:58.931Z,932.13
2018-12-06T00:04:58.924Z,932.15
2018-12-06T00:05:58.935Z,932.15
2018-12-06T00:06:58.888Z,932.18
2018-12-06T00:07:58.909Z,932.19
2018-12-06T00:08:58.887Z,932.22
2018-12-06T00:09:58.901Z,932.22
2018-12-06T00:10:58.902Z,932.21
2018-12-06T00:11:58.888Z,932.24
2018-12-06T00:12:58.859Z,932.27
2018-12-06T00:13:58.858Z,932.23
2018-12-06T00:14:58.881Z,932.25
2018-12-06T00:15:58.840Z,932.32
2018-12-06T00:16:58.838Z,932.31
2018-12-06T00:17:58.831Z,932.31
2018-12-06T00:18:58.833Z,932.29
2018-12-06T00:19:58.812Z,932.30
2018-12-06T00:20:58.858Z,932.27
2018-12-06T00:21:58.798Z,932.32
2018-12-06T00:22:58.811Z,932.34
2018-12-06T00:23:58.810Z,932.34
2018-12-06T00:24:58.776Z,932.35
2018-12-06T00:25:58.820Z,932.35
2018-12-06T00:26:58.793Z,932.34
2018-12-06T00:27:58.777Z,932.34
2018-12-06T00:28:58.778Z,932.34
2018-12-06T00:29:58.749Z,932.36
2018-12-06T00:30:58.744Z,932.37
2018-12-06T00:31:58.774Z,932.37
2018-12-06T00:32:58.758Z,932.35
2018-12-06T00:33:58.739Z,932.35
2018-12-06T00:34:58.734Z,932.36
2018-12-06T00:35:58.765Z,932.35
2018-12-06T00:36:58.709Z,932.36
2018-12-06T00:37:58.700Z,932.38
2018-12-06T00:38:58.707Z,932.41
2018-12-06T00:39:58.692Z,932.38
2018-12-06T00:40:58.782Z,932.41
2018-12-06T00:41:58.667Z,932.44
2018-12-06T00:42:58.687Z,932.41
2018-12-06T00:43:58.676Z,932.44
2018-12-06T00:44:58.630Z,932.45
2018-12-06T00:45:58.660Z,932.43
2018-12-06T00:46:58.637Z,932.42
2018-12-06T00:47:58.688Z,932.45
2018-12-06T00:48:58.654Z,932.47
2018-12-06T00:49:58.615Z,932.45
2018-12-06T00:50:58.619Z,932.44
2018-12-06T00:51:58.627Z,932.44
2018-12-06T00:52:58.605Z,932.47
2018-12-06T00:53:58.588Z,932.48
2018-12-06T00:54:58.611Z,932.47
2018-12-06T00:55:58.587Z,932.49
2018-12-06T00:56:58.584Z,932.47
2018-12-06T00:57:58.601Z,932.46
2018-12-06T00:58:58.582Z,932.45
2018-12-06T00:59:58.569Z,932.42
2018-12-06T01:00:58.555Z,932.40
2018-12-06T01:01:58.529Z,932.45
2018-12-06T01:02:58.521Z,932.39
2018-12-06T01:03:58.550Z,932.40
2018-12-06T01:04:58.569Z,932.40
2018-12-06T01:05:58.604Z,932.47
2018-12-06T01:06:58.539Z,932.47
2018-12-06T01:07:58.492Z,932.47
2018-12-06T01:08:58.547Z,932.51
2018-12-06T01:09:58.495Z,932.50
2018-12-06T01:10:58.486Z,932.48
2018-12-06T01:11:58.487Z,932.53
2018-12-06T01:12:58.476Z,932.53
2018-12-06T01:13:58.452Z,932.57
2018-12-06T01:14:58.472Z,932.56
2018-12-06T01:15:58.444Z,932.56
2018-12-06T01:16:58.464Z,932.62
2018-12-06T01:17:58.427Z,932.59
2018-12-06T01:18:58.445Z,932.63
2018-12-06T01:19:58.468Z,932.62
2018-12-06T01:20:58.414Z,932.65
2018-12-06T01:21:58.428Z,932.68
2018-12-06T01:22:58.421Z,932.71
2018-12-06T01:23:58.432Z,932.67
2018-12-06T01:24:58.394Z,932.68
2018-12-06T01:25:58.380Z,932.68
2018-12-06T01:26:58.404Z,932.66
2018-12-06T01:27:58.394Z,932.62
2018-12-06T01:28:58.355Z,932.63
2018-12-06T01:29:58.352Z,932.66
2018-12-06T01:30:58.357Z,932.62
2018-12-06T01:31:58.359Z,932.60
2018-12-06T01:32:58.385Z,932.62
2018-12-06T01:33:58.328Z,932.58
2018-12-06T01:34:58.347Z,932.60
2018-12-06T01:35:58.317Z,932.55
2018-12-06T01:36:58.324Z,932.56
2018-12-06T01:37:58.293Z,932.54
2018-12-06T01:38:58.302Z,932.58
2018-12-06T01:39:58.311Z,932.51
2018-12-06T01:40:58.290Z,932.55
2018-12-06T01:41:58.311Z,932.55
2018-12-06T01:42:58.256Z,932.53
2018-12-06T01:43:58.297Z,932.52
2018-12-06T01:44:58.246Z,932.55
2018-12-06T01:45:58.279Z,932.54
2018-12-06T01:46:58.252Z,932.57
2018-12-06T01:47:58.238Z,932.56
2018-12-06T01:48:58.223Z,932.56
2018-12-06T01:49:58.225Z,932.53
2018-12-06T01:50:58.219Z,932.54
2018-12-06T01:51:58.249Z,932.52
2018-12-06T01:52:58.190Z,932.55
2018-12-06T01:53:58.180Z,932.51
2018-12-06T01:54:58.208Z,932.52
2018-12-06T01:55:58.184Z,932.53
2018-12-06T01:56:58.218Z,932.57
2018-12-06T01:57:58.162Z,932.54
2018-12-06T01:58:58.186Z,932.52
2018-12-06T01:59:58.142Z,932.53
2018-12-06T02:00:58.143Z,932.52
2018-12-06T02:01:58.125Z,932.54
2018-12-06T02:02:58.153Z,932.56
2018-12-06T02:03:58.150Z,932.57
2018-12-06T02:04:58.177Z,932.58
2018-12-06T02:05:58.120Z,932.61
2018-12-06T02:06:58.109Z,932.64
2018-12-06T02:07:58.101Z,932.63
2018-12-06T02:08:58.111Z,932.66
2018-12-06T02:09:58.084Z,932.63
2018-12-06T02:10:58.086Z,932.64
2018-12-06T02:11:58.117Z,932.66
2018-12-06T02:12:58.063Z,932.65
2018-12-06T02:13:58.055Z,932.66
2018-12-06T02:14:58.042Z,932.67
2018-12-06T02:15:58.071Z,932.68
2018-12-06T02:16:58.029Z,932.69
2018-12-06T02:17:58.050Z,932.68
2018-12-06T02:18:58.025Z,932.69
2018-12-06T02:19:58.006Z,932.66
2018-12-06T02:20:58.006Z,932.65
2018-12-06T02:21:58.015Z,932.65
2018-12-06T02:22:57.980Z,932.66
2018-12-06T02:23:57.971Z,932.63
2018-12-06T02:24:57.994Z,932.62
2018-12-06T02:25:58.009Z,932.62
2018-12-06T02:26:57.983Z,932.64
2018-12-06T02:27:57.949Z,932.62
2018-12-06T02:28:57.967Z,932.63
2018-12-06T02:29:57.933Z,932.62
2018-12-06T02:30:57.948Z,932.64
2018-12-06T02:31:57.929Z,932.60
2018-12-06T02:32:57.976Z,932.66
2018-12-06T02:33:57.931Z,932.64
2018-12-06T02:34:57.933Z,932.67
2018-12-06T02:35:57.902Z,932.63
2018-12-06T02:36:57.916Z,932.65
2018-12-06T02:37:57.921Z,932.66
2018-12-06T02:38:57.889Z,932.66
2018-12-06T02:39:57.889Z,932.64
2018-12-06T02:40:57.854Z,932.66
2018-12-06T02:41:57.876Z,932.59
2018-12-06T02:42:57.864Z,932.58
2018-12-06T02:43:57.869Z,932.58
2018-12-06T02:44:57.874Z,932.57
2018-12-06T02:45:57.834Z,932.55
2018-12-06T02:46:57.840Z,932.56
2018-12-06T02:47:57.834Z,932.53
2018-12-06T02:48:57.828Z,932.53
2018-12-06T02:49:57.848Z,932.49
2018-12-06T02:50:57.812Z,932.47
2018-12-06T02:51:57.808Z,932.48
2018-12-06T02:52:57.796Z,932.45
2018-12-06T02:53:57.792Z,932.48
2018-12-06T02:54:57.793Z,932.46
2018-12-06T02:55:57.781Z,932.48
2018-12-06T02:56:57.767Z,932.43
2018-12-06T02:57:57.737Z,932.44
2018-12-06T02:58:57.748Z,932.43
2018-12-06T02:59:57.707Z,932.38
2018-12-06T03:00:57.718Z,932.37
2018-12-06T03:01:57.736Z,932.39
2018-12-06T03:02:57.707Z,932.36
2018-12-06T03:03:57.706Z,932.40
2018-12-06T03:04:57.706Z,932.33
2018-12-06T03:05:57.686Z,932.34
2018-12-06T03:06:57.683Z,932.33
2018-12-06T03:07:57.719Z,932.34
2018-12-06T03:08:57.658Z,932.31
2018-12-06T03:09:57.648Z,932.27
2018-12-06T03:10:57.658Z,932.24
2018-12-06T03:11:57.641Z,932.21
2018-12-06T03:12:57.633Z,932.22
2018-12-06T03:13:57.659Z,932.23
2018-12-06T03:14:57.610Z,932.21
2018-12-06T03:15:57.624Z,932.21
2018-12-06T03:16:57.620Z,932.23
2018-12-06T03:17:57.613Z,932.20
2018-12-06T03:18:57.643Z,932.26
2018-12-06T03:19:57.596Z,932.23
2018-12-06T03:20:57.677Z,932.25
2018-12-06T03:21:57.577Z,932.24
2018-12-06T03:22:57.589Z,932.23
2018-12-06T03:23:57.617Z,932.23
2018-12-06T03:24:57.582Z,932.17
2018-12-06T03:25:57.547Z,932.19
2018-12-06T03:26:57.568Z,932.18
2018-12-06T03:27:57.514Z,932.19
2018-12-06T03:28:57.523Z,932.16
2018-12-06T03:29:57.501Z,932.17
2018-12-06T03:30:57.529Z,932.19
2018-12-06T03:31:57.502Z,932.20
2018-12-06T03:32:57.485Z,932.19
2018-12-06T03:33:57.502Z,932.17
2018-12-06T03:34:57.488Z,932.17
2018-12-06T03:35:57.488Z,932.17
2018-12-06T03:36:57.462Z,932.15
2018-12-06T03:37:57.468Z,932.19
2018-12-06T03:38:57.548Z,932.13
2018-12-06T03:39:57.435Z,932.12
2018-12-06T03:40:57.439Z,932.11
2018-12-06T03:41:57.424Z,932.10
2018-12-06T03:42:57.416Z,932.11
2018-12-06T03:43:57.424Z,932.09
2018-12-06T03:44:57.423Z,932.08
2018-12-06T03:45:57.461Z,932.06
2018-12-06T03:46:57.415Z,932.03
2018-12-06T03:47:57.403Z,932.02
2018-12-06T03:48:57.419Z,932.01
2018-12-06T03:49:57.386Z,931.98
2018-12-06T03:50:57.378Z,931.98
2018-12-06T03:51:57.409Z,931.93
2018-12-06T03:52:57.348Z,931.90
2018-12-06T03:53:57.355Z,931.88
2018-12-06T03:54:57.345Z,931.87
2018-12-06T03:55:57.303Z,931.88
2018-12-06T03:56:57.386Z,931.86
2018-12-06T03:57:57.327Z,931.87
2018-12-06T03:58:57.297Z,931.88
2018-12-06T03:59:57.316Z,931.86
2018-12-06T04:00:57.288Z,931.88
2018-12-06T04:01:57.292Z,931.86
2018-12-06T04:02:57.274Z,931.84
2018-12-06T04:03:57.273Z,931.86
2018-12-06T04:04:57.270Z,931.82
2018-12-06T04:05:57.253Z,931.86
2018-12-06T04:06:57.285Z,931.82
2018-12-06T04:07:57.219Z,931.84
2018-12-06T04:08:57.212Z,931.84
2018-12-06T04:09:57.199Z,931.79
2018-12-06T04:10:57.193Z,931.80
2018-12-06T04:11:57.187Z,931.82
2018-12-06T04:12:57.190Z,931.78
2018-12-06T04:13:57.185Z,931.77
2018-12-06T04:14:57.201Z,931.80
2018-12-06T04:15:57.170Z,931.79
2018-12-06T04:16:57.202Z,931.81
2018-12-06T04:17:57.196Z,931.80
2018-12-06T04:18:57.148Z,931.77
2018-12-06T04:19:57.161Z,931.79
2018-12-06T04:20:57.433Z,931.76
2018-12-06T04:21:57.153Z,931.77
2018-12-06T04:22:57.122Z,931.74
2018-12-06T04:23:57.114Z,931.78
2018-12-06T04:24:57.154Z,931.76
2018-12-06T04:25:57.101Z,931.79
2018-12-06T04:26:57.107Z,931.77
2018-12-06T04:27:57.079Z,931.73
2018-12-06T04:28:57.081Z,931.74
2018-12-06T04:29:57.070Z,931.69
2018-12-06T04:30:57.075Z,931.66
2018-12-06T04:31:57.291Z,931.65
2018-12-06T04:32:57.045Z,931.62
2018-12-06T04:33:57.020Z,931.62
2018-12-06T04:34:57.015Z,931.64
2018-12-06T04:35:57.033Z,931.64
2018-12-06T04:36:57.009Z,931.65
2018-12-06T04:37:57.021Z,931.63
2018-12-06T04:38:56.983Z,931.63
2018-12-06T04:39:56.999Z,931.61
2018-12-06T04:40:56.985Z,931.63
2018-12-06T04:41:56.992Z,931.60
2018-12-06T04:42:56.945Z,931.59
2018-12-06T04:43:56.955Z,931.59
2018-12-06T04:44:56.965Z,931.59
2018-12-06T04:45:56.952Z,931.61
2018-12-06T04:46:56.948Z,931.64
2018-12-06T04:47:56.940Z,931.63
2018-12-06T04:48:56.959Z,931.64
2018-12-06T04:49:56.891Z,931.65
2018-12-06T04:50:56.901Z,931.66
2018-12-06T04:51:56.922Z,931.70
2018-12-06T04:52:56.890Z,931.71
2018-12-06T04:53:56.889Z,931.71
2018-12-06T04:54:56.852Z,931.74
2018-12-06T04:55:56.913Z,931.70
2018-12-06T04:56:56.861Z,931.69
2018-12-06T04:57:56.860Z,931.68
2018-12-06T04:58:56.827Z,931.69
2018-12-06T04:59:56.834Z,931.63
2018-12-06T05:00:56.882Z,931.68
2018-12-06T05:01:56.812Z,931.67
2018-12-06T05:02:56.817Z,931.65
2018-12-06T05:03:56.791Z,931.63
2018-12-06T05:04:56.848Z,931.62
2018-12-06T05:05:56.791Z,931.63
2018-12-06T05:06:56.774Z,931.61
2018-12-06T05:07:56.763Z,931.61
2018-12-06T05:08:56.768Z,931.63
2018-12-06T05:09:56.749Z,931.63
2018-12-06T05:10:56.780Z,931.62
2018-12-06T05:11:56.729Z,931.68
2018-12-06T05:12:56.742Z,931.63
2018-12-06T05:13:56.714Z,931.67
2018-12-06T05:14:56.714Z,931.67
2018-12-06T05:15:56.710Z,931.68
2018-12-06T05:16:56.704Z,931.69
2018-12-06T05:17:56.689Z,931.65
2018-12-06T05:18:56.675Z,931.65
2018-12-06T05:19:56.685Z,931.64
2018-12-06T05:20:56.671Z,931.67
2018-12-06T05:21:56.671Z,931.67
2018-12-06T05:22:56.652Z,931.64
2018-12-06T05:23:56.644Z,931.67
2018-12-06T05:24:56.623Z,931.66
2018-12-06T05:25:56.631Z,931.68
2018-12-06T05:26:56.595Z,931.70
2018-12-06T05:27:56.597Z,931.66
2018-12-06T05:28:56.619Z,931.72
2018-12-06T05:29:56.602Z,931.67
2018-12-06T05:30:56.599Z,931.67
2018-12-06T05:31:56.570Z,931.69
2018-12-06T05:32:56.578Z,931.68
2018-12-06T05:33:56.538Z,931.69
2018-12-06T05:34:56.550Z,931.70
2018-12-06T05:35:56.523Z,931.72
2018-12-06T05:36:56.538Z,931.71
2018-12-06T05:37:56.839Z,931.73
2018-12-06T05:38:56.521Z,931.70
2018-12-06T05:39:56.514Z,931.74
2018-12-06T05:40:56.509Z,931.77
2018-12-06T05:41:56.500Z,931.76
2018-12-06T05:42:56.475Z,931.76
2018-12-06T05:43:56.482Z,931.75
2018-12-06T05:44:56.466Z,931.79
2018-12-06T05:45:56.469Z,931.81
2018-12-06T05:46:56.443Z,931.81
2018-12-06T05:47:56.441Z,931.85
2018-12-06T05:48:56.697Z,931.87
2018-12-06T05:49:56.411Z,931.86
2018-12-06T05:50:56.434Z,931.85
2018-12-06T05:51:56.399Z,931.88
2018-12-06T05:52:56.397Z,931.83
2018-12-06T05:53:56.405Z,931.80
2018-12-06T05:54:56.388Z,931.81
2018-12-06T05:55:56.375Z,931.79
2018-12-06T05:56:56.391Z,931.74
2018-12-06T05:57:56.352Z,931.77
2018-12-06T05:58:56.360Z,931.78
2018-12-06T05:59:56.565Z,931.78
2018-12-06T06:00:56.311Z,931.80
2018-12-06T06:01:56.331Z,931.82
2018-12-06T06:02:56.304Z,931.86
2018-12-06T06:03:56.302Z,931.87
2018-12-06T06:04:56.310Z,931.87
2018-12-06T06:05:56.284Z,931.81
2018-12-06T06:06:56.293Z,931.83
2018-12-06T06:07:56.269Z,931.85
2018-12-06T06:08:56.236Z,931.85
2018-12-06T06:09:56.254Z,931.86
2018-12-06T06:10:56.247Z,931.88
2018-12-06T06:11:56.243Z,931.90
2018-12-06T06:12:56.218Z,931.93
2018-12-06T06:13:56.231Z,931.91
2018-12-06T06:14:56.238Z,931.92
2018-12-06T06:15:56.196Z,931.97
2018-12-06T06:16:56.235Z,931.93
2018-12-06T06:17:56.167Z,931.93
2018-12-06T06:18:56.167Z,931.91
2018-12-06T06:19:56.159Z,931.89
2018-12-06T06:20:56.152Z,931.91
2018-12-06T06:21:56.139Z,931.91
2018-12-06T06:22:56.186Z,931.86
2018-12-06T06:23:56.168Z,931.88
2018-12-06T06:24:56.130Z,931.89
2018-12-06T06:25:56.140Z,931.92
2018-12-06T06:26:56.128Z,931.92
2018-12-06T06:27:56.096Z,931.94
2018-12-06T06:28:56.095Z,931.94
2018-12-06T06:29:56.086Z,931.91
2018-12-06T06:30:56.058Z,931.99
2018-12-06T06:31:56.056Z,932.00
2018-12-06T06:32:56.043Z,932.00
2018-12-06T06:33:56.051Z,932.02
2018-12-06T06:34:56.039Z,932.03
2018-12-06T06:35:56.005Z,932.01
2018-12-06T06:36:56.030Z,931.97
2018-12-06T06:37:56.022Z,931.99
2018-12-06T06:38:56.001Z,931.96
2018-12-06T06:39:56.002Z,931.94
2018-12-06T06:40:55.992Z,931.92
2018-12-06T06:41:56.125Z,931.93
2018-12-06T06:42:56.020Z,931.96
2018-12-06T06:43:55.954Z,931.99
2018-12-06T06:44:55.951Z,932.03
2018-12-06T06:45:55.991Z,932.03
2018-12-06T06:46:56.291Z,932.04
2018-12-06T06:47:55.919Z,931.98
2018-12-06T06:48:55.908Z,932.03
2018-12-06T06:49:55.887Z,932.01
2018-12-06T06:50:55.887Z,932.04
2018-12-06T06:51:55.871Z,932.04
2018-12-06T06:52:55.878Z,932.07
2018-12-06T06:53:55.884Z,932.08
2018-12-06T06:54:55.916Z,932.07
2018-12-06T06:55:55.844Z,932.12
2018-12-06T06:56:55.857Z,932.12
2018-12-06T06:57:55.845Z,932.18
2018-12-06T06:58:55.835Z,932.21
2018-12-06T06:59:55.813Z,932.17
2018-12-06T07:00:55.807Z,932.19
2018-12-06T07:01:55.794Z,932.22
2018-12-06T07:02:55.791Z,932.25
2018-12-06T07:03:55.779Z,932.24
2018-12-06T07:04:55.781Z,932.24
2018-12-06T07:05:55.766Z,932.29
2018-12-06T07:06:55.744Z,932.33
2018-12-06T07:07:55.735Z,932.35
2018-12-06T07:08:55.715Z,932.33
2018-12-06T07:09:55.740Z,932.33
2018-12-06T07:10:55.720Z,932.34
2018-12-06T07:11:55.744Z,932.34
2018-12-06T07:12:55.704Z,932.33
2018-12-06T07:13:56.013Z,932.36
2018-12-06T07:14:55.696Z,932.34
2018-12-06T07:15:55.674Z,932.36
2018-12-06T07:16:55.678Z,932.41
2018-12-06T07:17:55.650Z,932.40
2018-12-06T07:18:55.655Z,932.41
2018-12-06T07:19:55.636Z,932.42
2018-12-06T07:20:55.626Z,932.41
2018-12-06T07:21:55.627Z,932.41
2018-12-06T07:22:55.602Z,932.41
2018-12-06T07:23:55.618Z,932.44
2018-12-06T07:24:55.597Z,932.44
2018-12-06T07:25:55.577Z,932.43
2018-12-06T07:26:55.559Z,932.44
2018-12-06T07:27:55.548Z,932.44
2018-12-06T07:28:55.555Z,932.46
2018-12-06T07:29:55.558Z,932.51
2018-12-06T07:30:55.530Z,932.47
2018-12-06T07:31:55.522Z,932.47
2018-12-06T07:32:55.508Z,932.52
2018-12-06T07:33:55.508Z,932.50
2018-12-06T07:34:55.510Z,932.53
2018-12-06T07:35:55.473Z,932.53
2018-12-06T07:36:55.484Z,932.55
2018-12-06T07:37:55.494Z,932.50
2018-12-06T07:38:55.468Z,932.55
2018-12-06T07:39:55.503Z,932.52
2018-12-06T07:40:55.480Z,932.59
2018-12-06T07:41:55.461Z,932.63
2018-12-06T07:42:55.424Z,932.61
2018-12-06T07:43:55.453Z,932.61
2018-12-06T07:44:55.417Z,932.57
2018-12-06T07:45:55.399Z,932.58
2018-12-06T07:46:55.398Z,932.58
2018-12-06T07:47:55.386Z,932.60
2018-12-06T07:48:55.348Z,932.66
2018-12-06T07:49:55.382Z,932.68
2018-12-06T07:50:55.356Z,932.70
2018-12-06T07:51:55.332Z,932.69
2018-12-06T07:52:55.316Z,932.75
2018-12-06T07:53:55.333Z,932.71
2018-12-06T07:54:55.341Z,932.74
2018-12-06T07:55:55.289Z,932.78
2018-12-06T07:56:55.291Z,932.75
2018-12-06T07:57:55.282Z,932.79
2018-12-06T07:58:55.269Z,932.76
2018-12-06T07:59:55.273Z,932.73
2018-12-06T08:00:55.250Z,932.76
2018-12-06T08:01:55.233Z,932.78
2018-12-06T08:02:55.242Z,932.74
2018-12-06T08:03:55.269Z,932.77
2018-12-06T08:04:55.238Z,932.82
2018-12-06T08:05:55.193Z,932.79
2018-12-06T08:06:55.200Z,932.82
2018-12-06T08:07:55.189Z,932.83
2018-12-06T08:08:55.194Z,932.84
2018-12-06T08:09:55.173Z,932.82
2018-12-06T08:10:55.178Z,932.84
2018-12-06T08:11:55.208Z,932.81
2018-12-06T08:12:55.127Z,932.83
2018-12-06T08:13:55.137Z,932.88
2018-12-06T08:14:55.112Z,932.85
2018-12-06T08:15:55.123Z,932.84
2018-12-06T08:16:55.120Z,932.92
2018-12-06T08:17:55.125Z,932.91
2018-12-06T08:18:55.080Z,932.91
2018-12-06T08:19:55.074Z,932.93
2018-12-06T08:20:55.070Z,932.95
2018-12-06T08:21:55.080Z,932.94
2018-12-06T08:22:55.041Z,932.92
2018-12-06T08:23:55.100Z,932.90
2018-12-06T08:24:55.027Z,932.93
2018-12-06T08:25:55.040Z,932.89
2018-12-06T08:26:55.038Z,932.89
2018-12-06T08:27:55.009Z,932.92
2018-12-06T08:28:54.990Z,932.90
2018-12-06T08:29:54.975Z,932.94
2018-12-06T08:30:54.978Z,932.93
2018-12-06T08:31:54.969Z,932.90
2018-12-06T08:32:54.979Z,932.90
2018-12-06T08:33:54.935Z,932.93
2018-12-06T08:34:54.958Z,932.96
2018-12-06T08:35:54.928Z,933.03
2018-12-06T08:36:54.934Z,933.00
2018-12-06T08:37:54.920Z,932.99
2018-12-06T08:38:54.900Z,933.02
2018-12-06T08:39:54.907Z,933.02
2018-12-06T08:40:54.898Z,933.03
2018-12-06T08:41:54.864Z,933.04
2018-12-06T08:42:54.876Z,933.06
2018-12-06T08:43:54.860Z,933.08
2018-12-06T08:44:54.841Z,933.08
2018-12-06T08:45:54.831Z,933.12
2018-12-06T08:46:54.843Z,933.13
2018-12-06T08:47:54.805Z,933.17
2018-12-06T08:48:54.814Z,933.17
2018-12-06T08:49:55.061Z,933.20
2018-12-06T08:50:54.806Z,933.22
2018-12-06T08:51:54.804Z,933.21
2018-12-06T08:52:54.768Z,933.19
2018-12-06T08:53:54.764Z,933.22
2018-12-06T08:54:54.779Z,933.18
2018-12-06T08:55:54.740Z,933.20
2018-12-06T08:56:54.720Z,933.19
2018-12-06T08:57:54.791Z,933.18
2018-12-06T08:58:54.714Z,933.15
2018-12-06T08:59:54.733Z,933.19
2018-12-06T09:00:54.985Z,933.21
2018-12-06T09:01:54.693Z,933.18
2018-12-06T09:02:54.693Z,933.19
2018-12-06T09:03:54.693Z,933.20
2018-12-06T09:04:54.679Z,933.21
2018-12-06T09:05:54.650Z,933.21
2018-12-06T09:06:54.642Z,933.22
2018-12-06T09:07:56.073Z,933.26
2018-12-06T09:08:54.645Z,933.32
2018-12-06T09:09:54.629Z,933.28
2018-12-06T09:10:54.621Z,933.35
2018-12-06T09:11:54.641Z,933.37
2018-12-06T09:12:54.608Z,933.40
2018-12-06T09:13:54.602Z,933.43
2018-12-06T09:14:54.600Z,933.38
2018-12-06T09:15:54.582Z,933.42
2018-12-06T09:16:54.576Z,933.46
2018-12-06T09:17:54.559Z,933.49
2018-12-06T09:18:54.551Z,933.51
2018-12-06T09:19:54.547Z,933.55
2018-12-06T09:20:54.538Z,933.53
2018-12-06T09:21:54.540Z,933.56
2018-12-06T09:22:54.503Z,933.65
2018-12-06T09:23:54.516Z,933.57
2018-12-06T09:24:54.515Z,933.64
2018-12-06T09:25:54.495Z,933.64
2018-12-06T09:26:58.666Z,933.66
2018-12-06T09:27:54.470Z,933.67
2018-12-06T09:28:54.479Z,933.69
2018-12-06T09:29:54.467Z,933.65
2018-12-06T09:31:00.856Z,933.65
2018-12-06T09:31:54.432Z,933.67
2018-12-06T09:32:54.419Z,933.67
2018-12-06T09:33:54.436Z,933.68
2018-12-06T09:34:54.445Z,933.67
2018-12-06T09:35:54.389Z,933.69
2018-12-06T09:36:54.414Z,933.63
2018-12-06T09:37:54.384Z,933.68
2018-12-06T09:38:54.375Z,933.65
2018-12-06T09:39:54.376Z,933.64
2018-12-06T09:40:54.345Z,933.66
2018-12-06T09:41:54.347Z,933.65
2018-12-06T09:42:54.367Z,933.68
2018-12-06T09:43:54.346Z,933.67
2018-12-06T09:44:54.378Z,933.71
2018-12-06T09:45:54.330Z,933.70
2018-12-06T09:46:54.306Z,933.70
2018-12-06T09:47:54.344Z,933.71
2018-12-06T09:48:54.306Z,933.71
2018-12-06T09:49:54.294Z,933.72
2018-12-06T09:50:54.342Z,933.76
2018-12-06T09:51:54.272Z,933.78
2018-12-06T09:52:54.256Z,933.77
2018-12-06T09:53:54.270Z,933.78
2018-12-06T09:54:54.234Z,933.80
2018-12-06T09:55:54.236Z,933.78
2018-12-06T09:56:54.221Z,933.81
2018-12-06T09:57:54.209Z,933.80
2018-12-06T09:58:54.210Z,933.84
2018-12-06T09:59:54.204Z,933.80
2018-12-06T10:00:54.199Z,933.88
2018-12-06T10:01:54.209Z,933.83
2018-12-06T10:02:54.189Z,933.77
2018-12-06T10:03:54.180Z,933.77
2018-12-06T10:04:54.200Z,933.83
2018-12-06T10:05:54.156Z,933.80
2018-12-06T10:06:54.130Z,933.83
2018-12-06T10:07:54.152Z,933.86
2018-12-06T10:08:54.113Z,933.89
2018-12-06T10:09:54.118Z,933.84
2018-12-06T10:10:54.103Z,933.83
2018-12-06T10:11:54.102Z,933.87
2018-12-06T10:12:54.103Z,933.83
2018-12-06T10:13:54.090Z,933.86
2018-12-06T10:14:54.098Z,933.86
2018-12-06T10:15:54.073Z,933.90
2018-12-06T10:16:54.067Z,933.88
2018-12-06T10:17:54.062Z,933.89
2018-12-06T10:18:57.600Z,933.93
2018-12-06T10:19:54.056Z,933.92
2018-12-06T10:20:54.055Z,933.94
2018-12-06T10:21:54.040Z,933.97
2018-12-06T10:22:54.055Z,933.89
2018-12-06T10:23:54.024Z,933.90
2018-12-06T10:24:54.020Z,933.94
2018-12-06T10:25:53.969Z,933.97
2018-12-06T10:26:53.993Z,933.95
2018-12-06T10:27:53.965Z,933.89
2018-12-06T10:28:53.984Z,933.86
2018-12-06T10:29:53.956Z,933.86
2018-12-06T10:30:53.964Z,933.84
2018-12-06T10:31:53.925Z,933.83
2018-12-06T10:32:53.985Z,933.86
2018-12-06T10:33:53.924Z,933.89
2018-12-06T10:34:53.936Z,933.87
2018-12-06T10:35:53.920Z,933.89
2018-12-06T10:36:53.892Z,933.88
2018-12-06T10:37:53.953Z,933.93
2018-12-06T10:38:53.892Z,933.90
2018-12-06T10:39:53.886Z,933.92
2018-12-06T10:40:53.885Z,933.91
2018-12-06T10:41:53.879Z,933.90
2018-12-06T10:42:53.847Z,933.89
2018-12-06T10:43:57.199Z,933.90
2018-12-06T10:44:53.844Z,933.89
2018-12-06T10:45:53.830Z,933.87
2018-12-06T10:46:53.817Z,933.86
2018-12-06T10:47:53.836Z,933.90
2018-12-06T10:48:53.811Z,933.90
2018-12-06T10:49:53.816Z,933.92
2018-12-06T10:50:53.798Z,933.92
2018-12-06T10:51:53.804Z,933.93
2018-12-06T10:52:53.772Z,933.96
2018-12-06T10:53:53.777Z,933.94
2018-12-06T10:54:53.775Z,933.99
2018-12-06T10:55:53.761Z,933.95
2018-12-06T10:56:53.769Z,934.00
2018-12-06T10:57:53.748Z,933.95
2018-12-06T10:58:53.742Z,933.98
2018-12-06T10:59:53.739Z,934.00
2018-12-06T11:00:57.395Z,934.04
2018-12-06T11:01:53.709Z,934.02
2018-12-06T11:02:53.732Z,934.04
2018-12-06T11:03:53.736Z,934.06
2018-12-06T11:04:53.712Z,934.07
2018-12-06T11:05:53.676Z,934.09
2018-12-06T11:06:53.725Z,934.07
2018-12-06T11:07:53.682Z,934.08
2018-12-06T11:08:53.678Z,934.10
2018-12-06T11:09:53.674Z,934.11
2018-12-06T11:10:53.652Z,934.11
2018-12-06T11:11:53.650Z,934.03
2018-12-06T11:12:53.635Z,934.09
2018-12-06T11:13:53.613Z,934.16
2018-12-06T11:14:53.634Z,934.14
2018-12-06T11:15:55.660Z,934.14
2018-12-06T11:16:53.621Z,934.16
2018-12-06T11:17:53.607Z,934.19
2018-12-06T11:18:53.612Z,934.18
2018-12-06T11:19:53.605Z,934.15
2018-12-06T11:20:53.586Z,934.17
2018-12-06T11:21:53.589Z,934.16
2018-12-06T11:22:53.575Z,934.17
2018-12-06T11:23:53.591Z,934.17
2018-12-06T11:24:53.556Z,934.22
2018-12-06T11:25:53.537Z,934.23
2018-12-06T11:26:53.519Z,934.24
2018-12-06T11:27:53.554Z,934.33
2018-12-06T11:28:53.527Z,934.28
2018-12-06T11:29:53.560Z,934.32
2018-12-06T11:30:53.540Z,934.34
2018-12-06T11:31:53.516Z,934.35
2018-12-06T11:32:53.495Z,934.38
2018-12-06T11:33:53.481Z,934.34
2018-12-06T11:34:53.510Z,934.32
2018-12-06T11:35:53.541Z,934.30
2018-12-06T11:36:53.487Z,934.28
2018-12-06T11:37:53.491Z,934.25
2018-12-06T11:38:53.462Z,934.29
2018-12-06T11:39:53.467Z,934.27
2018-12-06T11:40:53.457Z,934.30
2018-12-06T11:41:53.466Z,934.29
2018-12-06T11:42:53.448Z,934.30
2018-12-06T11:43:53.481Z,934.31
2018-12-06T11:44:53.434Z,934.28
2018-12-06T11:45:53.451Z,934.30
2018-12-06T11:46:53.422Z,934.32
2018-12-06T11:47:53.864Z,934.28
2018-12-06T11:48:53.419Z,934.27
2018-12-06T11:49:53.412Z,934.25
2018-12-06T11:50:53.395Z,934.15
2018-12-06T11:51:53.383Z,934.20
2018-12-06T11:52:53.437Z,934.17
2018-12-06T11:53:53.868Z,934.20
2018-12-06T11:54:53.372Z,934.18
2018-12-06T11:55:53.403Z,934.21
2018-12-06T11:56:53.366Z,934.22
2018-12-06T11:57:53.353Z,934.20
2018-12-06T11:58:53.369Z,934.15
2018-12-06T11:59:53.355Z,934.19
2018-12-06T12:00:53.389Z,934.19
2018-12-06T12:01:53.333Z,934.22
2018-12-06T12:02:53.354Z,934.20
2018-12-06T12:03:55.075Z,934.16
2018-12-06T12:04:53.314Z,934.18
2018-12-06T12:05:58.573Z,934.13
2018-12-06T12:06:53.302Z,934.21
2018-12-06T12:07:53.310Z,934.28
2018-12-06T12:08:53.324Z,934.27
2018-12-06T12:09:53.698Z,934.27
2018-12-06T12:10:53.299Z,934.23
2018-12-06T12:11:53.295Z,934.24
2018-12-06T12:12:53.294Z,934.22
2018-12-06T12:13:53.307Z,934.20
2018-12-06T12:14:53.298Z,934.19
2018-12-06T12:15:53.273Z,934.21
2018-12-06T12:16:53.285Z,934.23
2018-12-06T12:17:53.286Z,934.25
2018-12-06T12:18:53.685Z,934.25
2018-12-06T12:19:53.273Z,934.27
2018-12-06T12:20:53.260Z,934.26
2018-12-06T12:21:53.264Z,934.29
2018-12-06T12:22:53.230Z,934.24
2018-12-06T12:23:53.483Z,934.28
2018-12-06T12:24:53.240Z,934.25
2018-12-06T12:25:53.247Z,934.28
2018-12-06T12:26:53.235Z,934.27
2018-12-06T12:27:53.238Z,934.28
2018-12-06T12:28:53.227Z,934.27